sensor_id;sensor_type;location;lat;lon;timestamp;temperature;humidity
7248;DHT22;3665;51.034;13.642;2023-08-06T00:02:28;14.70;99.90
7248;DHT22;3665;51.034;13.642;2023-08-06T00:07:16;14.70;99.90
7248;DHT22;3665;51.034;13.642;2023-08-06T00:12:06;14.70;99.90
7248;DHT22;3665;51.034;13.642;2023-08-06T00:16:51;14.70;99.90
7248;DHT22;3665;51.034;13.642;2023-08-06T00:21:40;14.60;99.90
7248;DHT22;3665;51.034;13.642;2023-08-06T00:26:47;14.60;99.90
7248;DHT22;3665;51.034;13.642;2023-08-06T00:31:32;14.60;99.90
7248;DHT22;3665;51.034;13.642;2023-08-06T00:36:19;14.60;99.90
7248;DHT22;3665;51.034;13.642;2023-08-06T00:41:11;14.60;99.90
7248;DHT22;3665;51.034;13.642;2023-08-06T00:46:11;14.60;99.90
7248;DHT22;3665;51.034;13.642;2023-08-06T00:51:00;14.70;99.90
7248;DHT22;3665;51.034;13.642;2023-08-06T00:55:47;14.70;99.90
7248;DHT22;3665;51.034;13.642;2023-08-06T01:33:09;14.60;99.90
7248;DHT22;3665;51.034;13.642;2023-08-06T01:37:59;14.60;99.90
7248;DHT22;3665;51.034;13.642;2023-08-06T01:48:11;14.50;99.90
7248;DHT22;3665;51.034;13.642;2023-08-06T01:53:11;14.50;99.90
7248;DHT22;3665;51.034;13.642;2023-08-06T01:57:55;14.50;99.90
7248;DHT22;3665;51.034;13.642;2023-08-06T02:03:03;14.50;99.90
7248;DHT22;3665;51.034;13.642;2023-08-06T02:08:13;14.50;99.90
7248;DHT22;3665;51.034;13.642;2023-08-06T02:13:16;14.40;99.90
7248;DHT22;3665;51.034;13.642;2023-08-06T08:09:25;16.80;99.90
7248;DHT22;3665;51.034;13.642;2023-08-06T08:14:13;16.90;99.90
7248;DHT22;3665;51.034;13.642;2023-08-06T08:24:53;16.50;99.90
7248;DHT22;3665;51.034;13.642;2023-08-06T08:35:32;16.20;99.90
7248;DHT22;3665;51.034;13.642;2023-08-06T08:46:28;16.60;99.90
7248;DHT22;3665;51.034;13.642;2023-08-06T08:51:25;16.80;99.90
7248;DHT22;3665;51.034;13.642;2023-08-06T08:56:21;17.00;99.90
7248;DHT22;3665;51.034;13.642;2023-08-06T11:25:49;20.00;1.00
7248;DHT22;3665;51.034;13.642;2023-08-06T11:30:46;19.80;1.00
7248;DHT22;3665;51.034;13.642;2023-08-06T11:35:34;19.60;1.00
7248;DHT22;3665;51.034;13.642;2023-08-06T11:40:27;19.40;1.00
7248;DHT22;3665;51.034;13.642;2023-08-06T11:45:26;19.60;1.00
7248;DHT22;3665;51.034;13.642;2023-08-06T11:50:31;19.70;1.00
7248;DHT22;3665;51.034;13.642;2023-08-06T11:55:16;19.60;1.00
7248;DHT22;3665;51.034;13.642;2023-08-06T12:00:04;19.40;1.00
7248;DHT22;3665;51.034;13.642;2023-08-06T12:10:46;19.20;1.00
7248;DHT22;3665;51.034;13.642;2023-08-06T12:15:34;19.30;1.00
7248;DHT22;3665;51.034;13.642;2023-08-06T12:20:21;19.60;1.00
7248;DHT22;3665;51.034;13.642;2023-08-06T12:25:16;19.90;1.00
7248;DHT22;3665;51.034;13.642;2023-08-06T12:30:13;20.30;1.00
7248;DHT22;3665;51.034;13.642;2023-08-06T12:35:00;20.40;1.00
7248;DHT22;3665;51.034;13.642;2023-08-06T12:40:08;20.70;1.00
7248;DHT22;3665;51.034;13.642;2023-08-06T12:45:26;20.50;1.00
7248;DHT22;3665;51.034;13.642;2023-08-06T12:50:15;20.80;1.00
7248;DHT22;3665;51.034;13.642;2023-08-06T12:55:02;21.30;1.00
7248;DHT22;3665;51.034;13.642;2023-08-06T12:59:49;21.30;1.00
7248;DHT22;3665;51.034;13.642;2023-08-06T13:04:53;21.30;1.00
7248;DHT22;3665;51.034;13.642;2023-08-06T13:10:13;21.70;1.00
7248;DHT22;3665;51.034;13.642;2023-08-06T13:15:01;21.40;1.00
7248;DHT22;3665;51.034;13.642;2023-08-06T13:19:49;21.40;1.00
7248;DHT22;3665;51.034;13.642;2023-08-06T13:24:38;21.60;1.00
7248;DHT22;3665;51.034;13.642;2023-08-06T13:29:24;22.00;1.00
7248;DHT22;3665;51.034;13.642;2023-08-06T13:34:11;22.30;1.00
7248;DHT22;3665;51.034;13.642;2023-08-06T13:39:00;22.40;1.00
7248;DHT22;3665;51.034;13.642;2023-08-06T13:49:46;22.30;1.00
7248;DHT22;3665;51.034;13.642;2023-08-06T13:55:05;22.10;1.00
7248;DHT22;3665;51.034;13.642;2023-08-06T13:59:52;22.20;1.00
7248;DHT22;3665;51.034;13.642;2023-08-06T14:04:37;22.20;1.00
7248;DHT22;3665;51.034;13.642;2023-08-06T14:09:28;21.80;1.00
7248;DHT22;3665;51.034;13.642;2023-08-06T14:14:32;21.30;1.00
7248;DHT22;3665;51.034;13.642;2023-08-06T14:19:32;21.40;1.00
7248;DHT22;3665;51.034;13.642;2023-08-06T14:24:20;21.20;1.00
7248;DHT22;3665;51.034;13.642;2023-08-06T14:34:48;20.60;1.00
7248;DHT22;3665;51.034;13.642;2023-08-06T14:45:11;20.10;1.00
7248;DHT22;3665;51.034;13.642;2023-08-06T14:50:00;19.90;1.00
7248;DHT22;3665;51.034;13.642;2023-08-06T14:54:46;19.70;1.00
7248;DHT22;3665;51.034;13.642;2023-08-06T14:59:32;20.00;1.00
7248;DHT22;3665;51.034;13.642;2023-08-06T15:04:19;20.20;1.00
7248;DHT22;3665;51.034;13.642;2023-08-06T15:09:31;20.40;1.00
7248;DHT22;3665;51.034;13.642;2023-08-06T15:14:43;20.60;1.00
7248;DHT22;3665;51.034;13.642;2023-08-06T15:25:11;20.60;1.00
7248;DHT22;3665;51.034;13.642;2023-08-06T15:29:58;20.50;1.00
7248;DHT22;3665;51.034;13.642;2023-08-06T15:34:45;20.30;1.00
7248;DHT22;3665;51.034;13.642;2023-08-06T15:39:31;20.20;1.00
7248;DHT22;3665;51.034;13.642;2023-08-06T15:44:22;20.20;1.00
7248;DHT22;3665;51.034;13.642;2023-08-06T15:49:08;19.80;1.00
7248;DHT22;3665;51.034;13.642;2023-08-06T15:53:55;19.40;1.00
7248;DHT22;3665;51.034;13.642;2023-08-06T15:58:45;18.80;1.00
7248;DHT22;3665;51.034;13.642;2023-08-06T16:03:33;18.50;1.00
7248;DHT22;3665;51.034;13.642;2023-08-06T16:08:19;18.50;1.00
7248;DHT22;3665;51.034;13.642;2023-08-06T16:13:24;18.20;75.20
7248;DHT22;3665;51.034;13.642;2023-08-06T16:18:17;18.10;54.20
7248;DHT22;3665;51.034;13.642;2023-08-06T16:23:02;18.00;35.20
7248;DHT22;3665;51.034;13.642;2023-08-06T16:27:48;17.80;32.30
7248;DHT22;3665;51.034;13.642;2023-08-06T16:32:32;17.60;81.90
7248;DHT22;3665;51.034;13.642;2023-08-06T16:37:17;17.60;99.90
7248;DHT22;3665;51.034;13.642;2023-08-06T16:42:11;17.60;99.90
7248;DHT22;3665;51.034;13.642;2023-08-06T16:46:59;17.70;99.90
7248;DHT22;3665;51.034;13.642;2023-08-06T16:51:49;17.80;99.90
7248;DHT22;3665;51.034;13.642;2023-08-06T16:56:36;17.80;99.90
7248;DHT22;3665;51.034;13.642;2023-08-06T17:01:24;17.70;99.90
7248;DHT22;3665;51.034;13.642;2023-08-06T17:06:11;17.80;99.90
7248;DHT22;3665;51.034;13.642;2023-08-06T17:11:18;17.70;99.90
7248;DHT22;3665;51.034;13.642;2023-08-06T17:16:04;17.60;99.90
7248;DHT22;3665;51.034;13.642;2023-08-06T17:20:53;17.50;99.90
7248;DHT22;3665;51.034;13.642;2023-08-06T17:25:43;17.30;1.00
7248;DHT22;3665;51.034;13.642;2023-08-06T17:30:28;17.20;99.90
7248;DHT22;3665;51.034;13.642;2023-08-06T17:35:16;17.10;1.00
7248;DHT22;3665;51.034;13.642;2023-08-06T17:40:07;17.00;1.00
7248;DHT22;3665;51.034;13.642;2023-08-06T17:44:54;16.80;1.00
7248;DHT22;3665;51.034;13.642;2023-08-06T17:54:59;16.60;1.00
7248;DHT22;3665;51.034;13.642;2023-08-06T17:59:50;16.40;99.90
7248;DHT22;3665;51.034;13.642;2023-08-06T18:04:35;16.30;99.90
7248;DHT22;3665;51.034;13.642;2023-08-06T18:09:18;16.10;99.90
7248;DHT22;3665;51.034;13.642;2023-08-06T18:14:04;15.90;99.90
7248;DHT22;3665;51.034;13.642;2023-08-06T18:19:18;15.60;99.90
7248;DHT22;3665;51.034;13.642;2023-08-06T18:24:04;15.50;99.90
7248;DHT22;3665;51.034;13.642;2023-08-06T18:28:54;15.30;99.90
7248;DHT22;3665;51.034;13.642;2023-08-06T18:33:39;15.30;99.90
7248;DHT22;3665;51.034;13.642;2023-08-06T18:38:31;15.30;99.90
7248;DHT22;3665;51.034;13.642;2023-08-06T18:43:17;15.20;99.90
7248;DHT22;3665;51.034;13.642;2023-08-06T18:48:04;14.90;99.90
7248;DHT22;3665;51.034;13.642;2023-08-06T18:52:51;14.80;99.90
7248;DHT22;3665;51.034;13.642;2023-08-06T18:57:39;14.70;99.90
7248;DHT22;3665;51.034;13.642;2023-08-06T19:02:27;14.60;99.90
7248;DHT22;3665;51.034;13.642;2023-08-06T19:07:16;14.50;99.90
7248;DHT22;3665;51.034;13.642;2023-08-06T19:12:06;14.30;99.90
7248;DHT22;3665;51.034;13.642;2023-08-06T19:16:53;14.30;99.90
7248;DHT22;3665;51.034;13.642;2023-08-06T19:21:41;14.30;99.90
7248;DHT22;3665;51.034;13.642;2023-08-06T19:26:28;14.20;99.90
7248;DHT22;3665;51.034;13.642;2023-08-06T19:31:18;14.00;99.90
7248;DHT22;3665;51.034;13.642;2023-08-06T19:36:04;13.90;99.90
7248;DHT22;3665;51.034;13.642;2023-08-06T19:41:08;13.80;99.90
7248;DHT22;3665;51.034;13.642;2023-08-06T19:45:58;13.80;99.90
7248;DHT22;3665;51.034;13.642;2023-08-06T19:50:50;13.80;99.90
7248;DHT22;3665;51.034;13.642;2023-08-06T19:55:39;13.70;99.90
7248;DHT22;3665;51.034;13.642;2023-08-06T20:00:34;13.60;99.90
7248;DHT22;3665;51.034;13.642;2023-08-06T20:05:20;13.60;99.90
7248;DHT22;3665;51.034;13.642;2023-08-06T20:10:05;13.70;99.90
7248;DHT22;3665;51.034;13.642;2023-08-06T20:15:09;13.70;99.90
7248;DHT22;3665;51.034;13.642;2023-08-06T20:19:56;13.70;99.90
7248;DHT22;3665;51.034;13.642;2023-08-06T20:24:53;13.70;99.90
7248;DHT22;3665;51.034;13.642;2023-08-06T20:29:42;13.70;99.90
7248;DHT22;3665;51.034;13.642;2023-08-06T20:34:46;13.70;99.90
7248;DHT22;3665;51.034;13.642;2023-08-06T20:39:35;13.80;99.90
7248;DHT22;3665;51.034;13.642;2023-08-06T20:44:20;13.80;99.90
7248;DHT22;3665;51.034;13.642;2023-08-06T20:49:08;13.80;99.90
7248;DHT22;3665;51.034;13.642;2023-08-06T20:59:36;13.90;99.90
7248;DHT22;3665;51.034;13.642;2023-08-06T21:04:20;13.80;99.90
7248;DHT22;3665;51.034;13.642;2023-08-06T21:09:11;13.80;99.90
7248;DHT22;3665;51.034;13.642;2023-08-06T21:13:56;13.80;99.90
7248;DHT22;3665;51.034;13.642;2023-08-06T21:24:21;13.80;99.90
7248;DHT22;3665;51.034;13.642;2023-08-06T21:29:07;13.90;99.90
7248;DHT22;3665;51.034;13.642;2023-08-06T21:34:00;13.80;99.90
7248;DHT22;3665;51.034;13.642;2023-08-06T21:38:44;13.80;99.90
7248;DHT22;3665;51.034;13.642;2023-08-06T21:43:34;13.80;99.90
7248;DHT22;3665;51.034;13.642;2023-08-06T21:48:20;13.80;99.90
7248;DHT22;3665;51.034;13.642;2023-08-06T21:53:09;13.90;99.90
7248;DHT22;3665;51.034;13.642;2023-08-06T21:57:58;13.90;99.90
7248;DHT22;3665;51.034;13.642;2023-08-06T22:02:44;13.80;99.90
7248;DHT22;3665;51.034;13.642;2023-08-06T22:07:31;13.80;99.90
7248;DHT22;3665;51.034;13.642;2023-08-06T22:12:15;13.70;99.90
7248;DHT22;3665;51.034;13.642;2023-08-06T22:17:09;13.80;99.90
7248;DHT22;3665;51.034;13.642;2023-08-06T22:21:56;13.80;99.90
7248;DHT22;3665;51.034;13.642;2023-08-06T22:26:44;13.80;99.90
7248;DHT22;3665;51.034;13.642;2023-08-06T22:31:31;14.00;99.90
7248;DHT22;3665;51.034;13.642;2023-08-06T22:36:20;14.00;99.90
7248;DHT22;3665;51.034;13.642;2023-08-06T22:41:09;14.00;99.90
7248;DHT22;3665;51.034;13.642;2023-08-06T22:45:59;14.00;99.90
7248;DHT22;3665;51.034;13.642;2023-08-06T22:50:45;13.90;99.90
7248;DHT22;3665;51.034;13.642;2023-08-06T22:55:30;13.90;99.90
7248;DHT22;3665;51.034;13.642;2023-08-06T23:00:20;13.80;99.90
7248;DHT22;3665;51.034;13.642;2023-08-06T23:05:08;13.80;99.90
7248;DHT22;3665;51.034;13.642;2023-08-06T23:10:18;13.90;99.90
7248;DHT22;3665;51.034;13.642;2023-08-06T23:20:55;13.90;99.90
7248;DHT22;3665;51.034;13.642;2023-08-06T23:52:53;13.70;99.90
7248;DHT22;3665;51.034;13.642;2023-08-06T23:57:39;13.70;99.90
